createdAt,value
2023-10-13T00:00:43.448Z,100468.84
2023-10-13T00:03:19.231Z,100470.78
2023-10-13T00:05:46.074Z,100461.66
2023-10-13T00:08:13.691Z,100472.69
2023-10-13T00:10:40.434Z,100469.66
2023-10-13T00:13:20.537Z,100456.13
2023-10-13T00:16:00.646Z,100464.41
2023-10-13T00:18:44.154Z,100473.81
2023-10-13T00:21:14.877Z,100469.44
2023-10-13T00:23:55.060Z,100476.88
2023-10-13T00:26:29.161Z,100470.53
2023-10-13T00:29:22.845Z,100462.25
2023-10-13T00:31:50.205Z,100460.59
2023-10-13T00:34:21.116Z,100452.31
2023-10-13T00:37:11.151Z,100444.31
2023-10-13T00:39:41.927Z,100442.06
2023-10-13T00:42:09.683Z,100440.66
2023-10-13T00:44:43.158Z,100437.91
2023-10-13T00:47:11.455Z,100431.28
2023-10-13T00:49:41.421Z,100429.06
2023-10-13T00:52:11.443Z,100425.19
2023-10-13T00:54:39.285Z,100419.66
2023-10-13T00:57:13.683Z,100417.41
2023-10-13T00:59:43.237Z,100417.41
2023-10-13T01:02:28.793Z,100408.63
2023-10-13T01:04:55.878Z,100409.13
2023-10-13T01:07:24.501Z,100400.03
2023-10-13T01:09:51.244Z,100402.50
2023-10-13T01:12:17.976Z,100396.16
2023-10-13T01:14:45.563Z,100398.09
2023-10-13T01:17:12.661Z,100388.19
2023-10-13T01:19:43.938Z,100389.53
2023-10-13T01:22:11.174Z,100393.09
2023-10-13T01:24:38.543Z,100384.81
2023-10-13T01:27:19.647Z,100382.06
2023-10-13T01:29:52.155Z,100382.06
2023-10-13T01:32:21.134Z,100377.66
2023-10-13T01:34:49.984Z,100374.88
2023-10-13T01:37:17.895Z,100365.50
2023-10-13T01:39:48.589Z,100367.16
2023-10-13T01:42:23.720Z,100368.78
2023-10-13T01:44:50.568Z,100364.91
2023-10-13T01:47:18.259Z,100366.56
2023-10-13T01:49:52.053Z,100365.44
2023-10-13T01:52:19.641Z,100365.16
2023-10-13T01:54:50.757Z,100365.41
2023-10-13T01:57:25.567Z,100360.69
2023-10-13T01:59:52.435Z,100347.19
2023-10-13T02:02:42.347Z,100353.22
2023-10-13T02:05:09.353Z,100342.72
2023-10-13T02:07:36.495Z,100338.03
2023-10-13T02:10:07.243Z,100330.00
2023-10-13T02:12:46.157Z,100331.66
2023-10-13T02:15:22.747Z,100336.63
2023-10-13T02:17:56.892Z,100323.91
2023-10-13T02:20:31.965Z,100327.78
2023-10-13T02:23:00.017Z,100316.75
2023-10-13T02:25:47.249Z,100310.69
2023-10-13T02:28:15.468Z,100311.22
2023-10-13T02:30:46.654Z,100318.38
2023-10-13T02:33:14.788Z,100314.50
2023-10-13T02:35:52.061Z,100309.00
2023-10-13T02:38:28.138Z,100307.34
2023-10-13T02:40:56.313Z,100301.81
2023-10-13T02:43:24.181Z,100299.88
2023-10-13T02:46:01.169Z,100288.81
2023-10-13T02:48:31.961Z,100293.00
2023-10-13T02:51:03.425Z,100283.59
2023-10-13T02:53:30.904Z,100280.81
2023-10-13T02:56:06.254Z,100278.06
2023-10-13T02:58:39.637Z,100273.34
2023-10-13T03:01:18.753Z,100267.00
2023-10-13T03:03:56.973Z,100268.06
2023-10-13T03:06:33.989Z,100258.66
2023-10-13T03:09:20.884Z,100250.06
2023-10-13T03:11:51.040Z,100249.78
2023-10-13T03:14:35.352Z,100248.69
2023-10-13T03:17:10.616Z,100248.06
2023-10-13T03:19:40.837Z,100232.56
2023-10-13T03:22:13.050Z,100224.78
2023-10-13T03:24:47.262Z,100222.56
2023-10-13T03:27:19.281Z,100212.03
2023-10-13T03:29:49.433Z,100210.91
2023-10-13T03:32:17.237Z,100213.06
2023-10-13T03:35:06.682Z,100208.91
2023-10-13T03:37:39.832Z,100210.78
2023-10-13T03:40:23.775Z,100197.50
2023-10-13T03:43:06.836Z,100205.47
2023-10-13T03:45:41.266Z,100196.88
2023-10-13T03:48:28.305Z,100190.75
2023-10-13T03:51:12.114Z,100181.31
2023-10-13T03:53:55.657Z,100180.22
2023-10-13T03:56:31.966Z,100177.44
2023-10-13T03:59:27.222Z,100177.97
2023-10-13T04:02:00.646Z,100165.81
2023-10-13T04:04:45.221Z,100161.91
2023-10-13T04:07:12.076Z,100156.38
2023-10-13T04:09:58.919Z,100162.94
2023-10-13T04:12:51.736Z,100170.13
2023-10-13T04:15:24.294Z,100159.88
2023-10-13T04:18:04.752Z,100159.06
2023-10-13T04:20:39.749Z,100169.50
2023-10-13T04:23:21.656Z,100161.53
2023-10-13T04:25:48.702Z,100164.81
2023-10-13T04:28:18.011Z,100157.66
2023-10-13T04:30:49.561Z,100151.81
2023-10-13T04:33:37.258Z,100149.88
2023-10-13T04:36:15.828Z,100148.47
2023-10-13T04:38:54.095Z,100150.13
2023-10-13T04:41:24.296Z,100140.72
2023-10-13T04:43:58.118Z,100137.66
2023-10-13T04:46:41.685Z,100134.56
2023-10-13T04:49:27.316Z,100133.75
2023-10-13T04:52:18.150Z,100126.81
2023-10-13T04:57:48.865Z,100119.00
2023-10-13T05:00:19.104Z,100126.19
2023-10-13T05:03:03.073Z,100125.06
2023-10-13T05:05:48.259Z,100118.41
2023-10-13T05:08:33.487Z,100119.22
2023-10-13T05:11:23.967Z,100114.84
2023-10-13T05:14:09.117Z,100116.75
2023-10-13T05:16:54.206Z,100115.13
2023-10-13T05:19:39.545Z,100112.06
2023-10-13T05:22:24.759Z,100123.41
2023-10-13T05:25:10.039Z,100115.13
2023-10-13T05:27:55.473Z,100110.44
2023-10-13T05:30:40.864Z,100109.59
2023-10-13T05:33:26.507Z,100099.97
2023-10-13T05:36:11.592Z,100097.72
2023-10-13T05:39:08.384Z,100095.75
2023-10-13T05:41:53.528Z,100099.06
2023-10-13T05:44:38.736Z,100109.00
2023-10-13T05:47:24.588Z,100104.06
2023-10-13T05:49:53.968Z,100106.22
2023-10-13T05:52:20.767Z,100096.59
2023-10-13T05:55:07.191Z,100089.72
2023-10-13T05:57:52.371Z,100105.19
2023-10-13T06:00:38.775Z,100105.72
2023-10-13T06:03:24.465Z,100102.41
2023-10-13T06:06:15.177Z,100097.19
2023-10-13T06:09:00.661Z,100091.34
2023-10-13T06:11:46.132Z,100103.78
2023-10-13T06:14:31.615Z,100091.56
2023-10-13T06:17:16.860Z,100086.88
2023-10-13T06:20:01.959Z,100089.31
2023-10-13T06:22:47.516Z,100092.94
2023-10-13T06:25:32.606Z,100092.63
2023-10-13T06:28:17.787Z,100098.16
2023-10-13T06:30:54.341Z,100093.94
2023-10-13T06:33:23.540Z,100091.19
2023-10-13T06:35:58.113Z,100096.94
2023-10-13T06:38:25.633Z,100089.44
2023-10-13T06:40:53.910Z,100082.78
2023-10-13T06:43:26.147Z,100091.00
2023-10-13T06:46:17.966Z,100081.56
2023-10-13T06:48:45.160Z,100085.38
2023-10-13T06:51:28.068Z,100080.97
2023-10-13T06:53:58.066Z,100077.50
2023-10-13T06:56:31.293Z,100078.31
2023-10-13T06:59:01.185Z,100075.97
2023-10-13T07:01:28.768Z,100071.16
2023-10-13T07:03:58.004Z,100070.75
2023-10-13T07:06:26.852Z,100073.19
2023-10-13T07:08:53.610Z,100067.06
2023-10-13T07:11:34.514Z,100060.09
2023-10-13T07:14:11.856Z,100063.59
2023-10-13T07:17:01.125Z,100061.31
2023-10-13T07:19:31.441Z,100055.97
2023-10-13T07:22:18.230Z,100054.25
2023-10-13T07:24:44.997Z,100062.75
2023-10-13T07:27:12.616Z,100053.50
2023-10-13T07:29:41.494Z,100054.22
2023-10-13T07:32:14.314Z,100062.94
2023-10-13T07:34:41.116Z,100052.06
2023-10-13T07:37:17.519Z,100056.69
2023-10-13T07:39:44.277Z,100054.91
2023-10-13T07:42:21.024Z,100044.88
2023-10-13T07:44:48.173Z,100038.09
2023-10-13T07:47:15.816Z,100037.97
2023-10-13T07:49:42.965Z,100032.09
2023-10-13T07:52:25.487Z,100026.22
2023-10-13T07:55:15.736Z,100021.84
2023-10-13T07:57:55.252Z,100016.66
2023-10-13T08:00:39.217Z,100015.44
2023-10-13T08:03:18.406Z,100014.78
2023-10-13T08:06:05.132Z,100013.53
2023-10-13T08:08:42.326Z,100006.72
2023-10-13T08:11:31.258Z,100005.25
2023-10-13T08:14:10.016Z,100003.81
2023-10-13T08:16:55.244Z,100008.22
2023-10-13T08:19:33.698Z,99999.28
2023-10-13T08:22:01.410Z,99996.53
2023-10-13T08:24:40.839Z,100001.03
2023-10-13T08:27:17.436Z,100001.19
2023-10-13T08:29:55.353Z,99997.28
2023-10-13T08:32:48.633Z,99995.13
2023-10-13T08:35:25.809Z,99991.34
2023-10-13T08:37:52.587Z,99983.56
2023-10-13T08:40:42.028Z,99989.91
2023-10-13T08:43:12.912Z,99985.19
2023-10-13T08:45:41.781Z,99990.75
2023-10-13T08:48:13.448Z,99985.19
2023-10-13T08:50:52.412Z,99965.91
2023-10-13T08:53:28.661Z,99978.50
2023-10-13T08:56:04.822Z,99971.81
2023-10-13T08:58:50.948Z,99983.94
2023-10-13T09:01:37.026Z,99976.59
2023-10-13T09:04:23.059Z,99983.31
2023-10-13T09:07:02.238Z,99993.31
2023-10-13T09:09:37.338Z,99988.16
2023-10-13T09:12:12.442Z,99997.50
2023-10-13T09:14:46.234Z,100003.09
2023-10-13T09:17:17.910Z,100004.94
2023-10-13T09:19:57.340Z,99986.16
2023-10-13T09:22:44.212Z,99982.94
2023-10-13T09:25:16.200Z,99972.19
2023-10-13T09:27:43.157Z,99964.84
2023-10-13T09:30:22.545Z,99958.34
2023-10-13T09:33:02.990Z,99971.25
2023-10-13T09:35:35.150Z,99956.25
2023-10-13T09:38:03.779Z,99970.47
2023-10-13T09:40:35.073Z,99958.53
2023-10-13T09:43:09.197Z,99954.00
2023-10-13T09:45:58.330Z,99953.84
2023-10-13T09:48:33.248Z,99947.47
2023-10-13T09:51:08.363Z,99945.53
2023-10-13T09:53:36.176Z,99934.44
2023-10-13T09:56:28.453Z,99941.31
2023-10-13T09:59:02.164Z,99938.72
2023-10-13T10:01:33.407Z,99925.78
2023-10-13T10:04:14.758Z,99934.09
2023-10-13T10:06:45.824Z,99923.31
2023-10-13T10:09:16.916Z,99924.44
2023-10-13T10:12:05.631Z,99923.47
2023-10-13T10:14:47.469Z,99927.53
2023-10-13T10:17:15.458Z,99921.47
2023-10-13T10:19:49.189Z,99924.25
2023-10-13T10:22:35.167Z,99932.25
2023-10-13T10:25:08.119Z,99931.94
2023-10-13T10:27:35.639Z,99933.38
2023-10-13T10:30:05.438Z,99922.44
2023-10-13T10:32:41.786Z,99914.41
2023-10-13T10:35:15.606Z,99928.31
2023-10-13T10:37:49.681Z,99927.81
2023-10-13T10:40:48.327Z,99922.25
2023-10-13T10:43:32.525Z,99926.38
2023-10-13T10:46:03.579Z,99915.88
2023-10-13T10:48:35.515Z,99914.38
2023-10-13T10:51:08.459Z,99918.31
2023-10-13T10:53:41.604Z,99907.53
2023-10-13T10:56:27.338Z,99897.50
2023-10-13T10:58:58.864Z,99894.19
2023-10-13T11:01:35.919Z,99887.78
2023-10-13T11:04:09.983Z,99886.91
2023-10-13T11:06:44.080Z,99874.94
2023-10-13T11:09:20.089Z,99876.66
2023-10-13T11:11:47.987Z,99869.03
2023-10-13T11:14:26.211Z,99874.81
2023-10-13T11:16:55.814Z,99876.63
2023-10-13T11:19:36.450Z,99868.06
2023-10-13T11:22:37.802Z,99867.16
2023-10-13T11:25:12.678Z,99869.28
2023-10-13T11:27:52.177Z,99861.41
2023-10-13T11:30:26.740Z,99859.56
2023-10-13T11:33:07.684Z,99861.50
2023-10-13T11:35:54.920Z,99862.34
2023-10-13T11:38:50.474Z,99867.09
2023-10-13T11:41:20.203Z,99861.50
2023-10-13T11:43:54.733Z,99863.97
2023-10-13T11:46:39.100Z,99849.56
2023-10-13T11:49:16.661Z,99850.72
2023-10-13T11:54:19.712Z,99855.84
2023-10-13T11:59:28.500Z,99836.13
2023-10-13T12:02:13.934Z,99844.94
2023-10-13T12:04:53.718Z,99838.69
2023-10-13T12:07:39.677Z,99843.69
2023-10-13T12:10:08.044Z,99846.16
2023-10-13T12:12:41.999Z,99847.78
2023-10-13T12:15:16.025Z,99847.78
2023-10-13T12:17:46.534Z,99846.97
2023-10-13T12:20:20.084Z,99841.25
2023-10-13T12:22:56.661Z,99843.59
2023-10-13T12:25:27.225Z,99826.03
2023-10-13T12:27:59.165Z,99826.88
2023-10-13T12:30:50.441Z,99822.44
2023-10-13T12:33:25.182Z,99821.97
2023-10-13T12:36:11.279Z,99825.25
2023-10-13T12:38:52.524Z,99821.97
2023-10-13T12:41:39.405Z,99809.91
2023-10-13T12:44:25.958Z,99802.47
2023-10-13T12:47:13.324Z,99799.47
2023-10-13T12:49:50.891Z,99789.03
2023-10-13T12:52:17.922Z,99795.53
2023-10-13T12:55:10.924Z,99793.38
2023-10-13T12:57:44.678Z,99796.72
2023-10-13T13:00:24.182Z,99791.16
2023-10-13T13:02:53.981Z,99785.56
2023-10-13T13:05:24.215Z,99786.41
2023-10-13T13:07:54.029Z,99767.94
2023-10-13T13:10:22.584Z,99778.41
2023-10-13T13:12:49.235Z,99776.88
2023-10-13T13:15:16.243Z,99773.75
2023-10-13T13:17:43.099Z,99775.03
2023-10-13T13:20:27.001Z,99779.09
2023-10-13T13:22:55.593Z,99765.28
2023-10-13T13:25:31.874Z,99765.41
2023-10-13T13:27:59.544Z,99755.66
2023-10-13T13:30:33.156Z,99745.56
2023-10-13T13:33:05.231Z,99751.59
2023-10-13T13:35:36.184Z,99748.50
2023-10-13T13:38:23.784Z,99756.50
2023-10-13T13:40:50.906Z,99750.56
2023-10-13T13:43:33.084Z,99753.59
2023-10-13T13:46:04.689Z,99758.47
2023-10-13T13:48:32.401Z,99761.94
2023-10-13T13:51:06.089Z,99771.84
2023-10-13T13:53:39.369Z,99762.56
2023-10-13T13:56:06.090Z,99763.13
2023-10-13T13:58:32.892Z,99767.28
2023-10-13T14:01:20.115Z,99756.69
2023-10-13T14:03:48.311Z,99758.91
2023-10-13T14:06:22.486Z,99741.22
2023-10-13T14:08:58.480Z,99730.66
2023-10-13T14:11:42.087Z,99740.06
2023-10-13T14:14:26.707Z,99719.16
2023-10-13T14:16:54.872Z,99728.66
2023-10-13T14:19:30.670Z,99736.22
2023-10-13T14:21:58.657Z,99735.25
2023-10-13T14:24:29.501Z,99741.19
2023-10-13T14:26:57.042Z,99734.69
2023-10-13T14:29:28.180Z,99743.38
2023-10-13T14:31:55.208Z,99746.06
2023-10-13T14:34:24.826Z,99740.03
2023-10-13T14:36:51.504Z,99731.19
2023-10-13T14:39:18.217Z,99738.25
2023-10-13T14:41:45.495Z,99734.19
2023-10-13T14:44:14.164Z,99726.19
2023-10-13T14:46:42.304Z,99736.50
2023-10-13T14:49:09.177Z,99729.28
2023-10-13T14:51:41.308Z,99738.34
2023-10-13T14:54:08.575Z,99740.19
2023-10-13T14:56:35.274Z,99736.47
2023-10-13T14:59:02.053Z,99743.06
2023-10-13T15:01:28.832Z,99739.47
2023-10-13T15:03:59.343Z,99747.34
2023-10-13T15:06:30.429Z,99739.00
2023-10-13T15:09:01.500Z,99726.22
2023-10-13T15:11:44.065Z,99717.41
2023-10-13T15:14:15.850Z,99710.50
2023-10-13T15:16:49.661Z,99684.53
2023-10-13T15:19:19.667Z,99709.94
2023-10-13T15:21:52.019Z,99694.72
2023-10-13T15:24:25.665Z,99694.59
2023-10-13T15:26:58.454Z,99700.84
2023-10-13T15:29:31.546Z,99701.53
2023-10-13T15:32:01.225Z,99706.63
2023-10-13T15:34:31.457Z,99698.13
2023-10-13T15:36:59.912Z,99695.72
2023-10-13T15:39:30.442Z,99689.19
2023-10-13T15:42:00.218Z,99681.03
2023-10-13T15:44:30.793Z,99676.19
2023-10-13T15:49:31.223Z,99675.91
2023-10-13T15:51:59.328Z,99688.19
2023-10-13T15:54:26.439Z,99693.63
2023-10-13T15:56:53.318Z,99697.56
2023-10-13T15:59:20.028Z,99693.84
2023-10-13T16:01:48.388Z,99686.16
2023-10-13T16:04:16.552Z,99686.50
2023-10-13T16:06:48.765Z,99679.97
2023-10-13T16:09:16.015Z,99669.53
2023-10-13T16:11:47.066Z,99666.28
2023-10-13T16:14:18.817Z,99662.06
2023-10-13T16:16:48.143Z,99667.16
2023-10-13T16:19:18.921Z,99665.06
2023-10-13T16:21:47.204Z,99661.00
2023-10-13T16:24:18.779Z,99654.91
2023-10-13T16:26:57.466Z,99650.84
2023-10-13T16:29:24.463Z,99654.28
2023-10-13T16:31:51.176Z,99656.63
2023-10-13T16:34:19.702Z,99657.28
2023-10-13T16:36:55.884Z,99658.44
2023-10-13T16:39:24.438Z,99650.78
2023-10-13T16:41:53.484Z,99653.06
2023-10-13T16:44:23.809Z,99642.50
2023-10-13T16:46:50.559Z,99648.19
2023-10-13T16:49:17.261Z,99642.50
2023-10-13T16:51:43.927Z,99630.09
2023-10-13T16:54:11.445Z,99629.59
2023-10-13T16:56:39.889Z,99629.13
2023-10-13T16:59:08.631Z,99623.91
2023-10-13T17:01:35.513Z,99617.06
2023-10-13T17:04:02.353Z,99622.13
2023-10-13T17:06:29.550Z,99610.53
2023-10-13T17:08:57.221Z,99603.38
2023-10-13T17:11:25.761Z,99580.66
2023-10-13T17:13:52.532Z,99594.53
2023-10-13T17:16:21.424Z,99591.78
2023-10-13T17:18:49.897Z,99599.63
2023-10-13T17:21:32.633Z,99593.25
2023-10-13T17:24:02.773Z,99584.44
2023-10-13T17:26:29.941Z,99585.94
2023-10-13T17:29:00.104Z,99593.78
2023-10-13T17:31:33.769Z,99581.38
2023-10-13T17:34:01.313Z,99585.66
2023-10-13T17:36:30.057Z,99587.94
2023-10-13T17:38:57.414Z,99583.06
2023-10-13T17:41:29.236Z,99582.56
2023-10-13T17:43:57.326Z,99567.75
2023-10-13T17:46:25.889Z,99560.56
2023-10-13T17:48:57.281Z,99562.84
2023-10-13T17:51:24.876Z,99568.41
2023-10-13T17:53:54.171Z,99565.16
2023-10-13T17:56:20.983Z,99552.44
2023-10-13T17:58:47.756Z,99548.00
2023-10-13T18:01:19.640Z,99551.94
2023-10-13T18:03:53.828Z,99559.47
2023-10-13T18:06:27.044Z,99548.22
2023-10-13T18:08:57.663Z,99541.03
2023-10-13T18:11:25.723Z,99534.50
2023-10-13T18:13:53.490Z,99538.44
2023-10-13T18:16:22.364Z,99551.16
2023-10-13T18:18:59.418Z,99545.44
2023-10-13T18:21:28.714Z,99546.91
2023-10-13T18:27:09.923Z,99531.47
2023-10-13T18:29:38.550Z,99532.28
2023-10-13T18:32:05.826Z,99522.66
2023-10-13T18:34:33.178Z,99524.97
2023-10-13T18:37:01.083Z,99516.97
2023-10-13T18:39:35.298Z,99526.44
2023-10-13T18:42:04.665Z,99520.91
2023-10-13T18:44:35.843Z,99512.06
2023-10-13T18:47:02.892Z,99512.06
2023-10-13T18:49:29.692Z,99512.06
2023-10-13T18:51:57.012Z,99512.75
2023-10-13T18:54:24.247Z,99513.91
2023-10-13T18:56:55.607Z,99509.50
2023-10-13T18:59:23.535Z,99513.06
2023-10-13T19:01:50.603Z,99509.50
2023-10-13T19:04:17.343Z,99511.44
2023-10-13T19:06:44.272Z,99503.09
2023-10-13T19:09:11.528Z,99497.41
2023-10-13T19:11:41.356Z,99497.41
2023-10-13T19:14:11.891Z,99491.88
2023-10-13T19:16:42.260Z,99496.28
2023-10-13T19:19:09.218Z,99474.41
2023-10-13T19:21:37.870Z,99461.34
2023-10-13T19:24:07.475Z,99442.25
2023-10-13T19:26:36.925Z,99432.44
2023-10-13T19:29:07.210Z,99421.81
2023-10-13T19:31:42.668Z,99425.06
2023-10-13T19:34:11.757Z,99416.75
2023-10-13T19:36:39.042Z,99428.00
2023-10-13T19:39:09.464Z,99432.06
2023-10-13T19:41:37.782Z,99434.47
2023-10-13T19:44:05.513Z,99442.94
2023-10-13T19:46:39.674Z,99463.69
2023-10-13T19:49:06.821Z,99472.16
2023-10-13T19:51:34.310Z,99475.41
2023-10-13T19:54:03.703Z,99461.53
2023-10-13T19:56:33.515Z,99458.75
2023-10-13T19:59:02.939Z,99456.44
2023-10-13T20:01:35.464Z,99474.88
2023-10-13T20:04:13.009Z,99469.47
2023-10-13T20:06:42.430Z,99465.34
2023-10-13T20:09:27.464Z,99483.44
2023-10-13T20:11:54.838Z,99476.53
2023-10-13T20:14:22.511Z,99480.75
2023-10-13T20:17:12.700Z,99476.81
2023-10-13T20:19:39.432Z,99456.22
2023-10-13T20:22:11.547Z,99461.22
2023-10-13T20:24:38.383Z,99460.53
2023-10-13T20:27:05.168Z,99453.84
2023-10-13T20:29:31.906Z,99446.31
2023-10-13T20:32:00.997Z,99454.44
2023-10-13T20:34:31.541Z,99444.63
2023-10-13T20:37:01.846Z,99455.84
2023-10-13T20:39:38.206Z,99444.41
2023-10-13T20:42:09.084Z,99441.13
2023-10-13T20:44:39.296Z,99434.28
2023-10-13T20:47:08.282Z,99425.69
2023-10-13T20:49:35.127Z,99436.13
2023-10-13T20:52:06.693Z,99429.75
2023-10-13T20:54:34.079Z,99423.41
2023-10-13T20:57:01.248Z,99435.66
2023-10-13T20:59:28.678Z,99427.31
2023-10-13T21:01:56.499Z,99439.00
2023-10-13T21:04:25.255Z,99432.16
2023-10-13T21:06:52.427Z,99426.94
2023-10-13T21:09:22.702Z,99432.63
2023-10-13T21:11:49.896Z,99426.59
2023-10-13T21:14:17.029Z,99429.38
2023-10-13T21:16:43.883Z,99429.38
2023-10-13T21:19:11.298Z,99431.69
2023-10-13T21:21:39.069Z,99414.25
2023-10-13T21:24:11.425Z,99425.19
2023-10-13T21:26:40.480Z,99422.41
2023-10-13T21:29:10.383Z,99420.31
2023-10-13T21:31:37.834Z,99423.56
2023-10-13T21:34:07.634Z,99423.09
2023-10-13T21:36:38.025Z,99410.34
2023-10-13T21:39:05.772Z,99425.59
2023-10-13T21:41:38.883Z,99425.09
2023-10-13T21:44:07.674Z,99405.16
2023-10-13T21:46:36.548Z,99403.50
2023-10-13T21:49:07.340Z,99405.78
2023-10-13T21:51:37.081Z,99411.06
2023-10-13T21:54:04.421Z,99423.88
2023-10-13T21:56:32.646Z,99406.59
2023-10-13T21:58:59.431Z,99410.72
2023-10-13T22:01:30.619Z,99391.69
2023-10-13T22:04:00.887Z,99400.88
2023-10-13T22:06:27.724Z,99402.88
2023-10-13T22:08:54.537Z,99433.59
2023-10-13T22:11:24.203Z,99421.72
2023-10-13T22:13:51.038Z,99432.50
2023-10-13T22:16:19.265Z,99425.53
2023-10-13T22:18:49.978Z,99398.13
2023-10-13T22:21:20.718Z,99407.59
2023-10-13T22:23:47.955Z,99386.06
2023-10-13T22:26:16.797Z,99377.28
2023-10-13T22:28:46.487Z,99363.63
2023-10-13T22:31:23.928Z,99362.28
2023-10-13T22:33:53.773Z,99366.53
2023-10-13T22:36:24.212Z,99376.69
2023-10-13T22:39:00.272Z,99362.34
2023-10-13T22:41:30.815Z,99368.56
2023-10-13T22:44:00.424Z,99349.81
2023-10-13T22:46:29.961Z,99338.75
2023-10-13T22:48:59.377Z,99333.84
2023-10-13T22:51:27.198Z,99346.91
2023-10-13T22:53:54.032Z,99336.97
2023-10-13T22:56:22.190Z,99344.94
2023-10-13T22:58:49.588Z,99335.03
2023-10-13T23:01:19.366Z,99336.97
2023-10-13T23:03:59.715Z,99328.19
2023-10-13T23:06:41.193Z,99325.88
2023-10-13T23:09:17.524Z,99314.50
2023-10-13T23:11:50.950Z,99312.88
2023-10-13T23:14:19.959Z,99318.41
2023-10-13T23:16:47.758Z,99320.03
2023-10-13T23:19:14.839Z,99317.59
2023-10-13T23:21:41.905Z,99324.28
2023-10-13T23:24:11.236Z,99322.03
2023-10-13T23:26:38.206Z,99326.25
2023-10-13T23:29:06.418Z,99327.41
2023-10-13T23:31:33.665Z,99330.16
2023-10-13T23:34:02.328Z,99337.34
2023-10-13T23:36:31.917Z,99332.59
2023-10-13T23:39:01.309Z,99331.81
2023-10-13T23:41:32.483Z,99340.13
2023-10-13T23:44:00.232Z,99335.22
2023-10-13T23:46:28.563Z,99340.56
2023-10-13T23:48:55.533Z,99332.25
2023-10-13T23:51:28.645Z,99321.66
2023-10-13T23:54:02.128Z,99336.34
2023-10-13T23:56:28.917Z,99328.84
2023-10-13T23:58:59.862Z,99325.44
